createdAt,value
2017-12-14T00:00:42.183Z,3.10
2017-12-14T00:03:09.335Z,3.20
2017-12-14T00:05:36.438Z,3.30
2017-12-14T00:08:02.787Z,3.30
2017-12-14T00:10:34.131Z,3.50
2017-12-14T00:13:00.469Z,3.60
2017-12-14T00:15:26.807Z,3.70
2017-12-14T00:17:53.931Z,3.70
2017-12-14T00:20:20.263Z,3.70
2017-12-14T00:22:46.620Z,3.80
2017-12-14T00:25:13.619Z,3.80
2017-12-14T00:27:39.948Z,3.80
2017-12-14T00:30:06.282Z,3.80
2017-12-14T00:32:32.615Z,3.80
2017-12-14T00:34:58.948Z,3.60
2017-12-14T00:37:25.334Z,3.30
2017-12-14T00:39:52.403Z,3.40
2017-12-14T00:42:18.754Z,3.40
2017-12-14T00:44:45.123Z,3.40
2017-12-14T00:47:11.499Z,3.40
2017-12-14T00:49:37.879Z,3.30
2017-12-14T00:52:04.252Z,3.30
2017-12-14T00:54:30.619Z,3.20
2017-12-14T00:56:56.978Z,3.20
2017-12-14T00:59:23.315Z,3.20
2017-12-14T01:01:49.659Z,2.90
2017-12-14T01:04:16.779Z,2.80
2017-12-14T01:06:43.127Z,2.80
2017-12-14T01:09:09.483Z,2.90
2017-12-14T01:11:36.783Z,2.80
2017-12-14T01:14:03.121Z,2.80
2017-12-14T01:16:29.463Z,2.80
2017-12-14T01:18:55.835Z,3.00
2017-12-14T01:21:22.916Z,3.00
2017-12-14T01:23:49.262Z,2.90
2017-12-14T01:26:15.606Z,3.00
2017-12-14T01:28:41.932Z,3.00
2017-12-14T01:31:08.317Z,3.00
2017-12-14T01:33:34.656Z,3.10
2017-12-14T01:36:01.000Z,3.10
2017-12-14T01:38:27.338Z,3.10
2017-12-14T01:40:53.696Z,3.10
2017-12-14T01:43:20.055Z,3.20
2017-12-14T01:45:47.148Z,3.20
2017-12-14T01:48:13.494Z,3.10
2017-12-14T01:50:39.860Z,3.20
2017-12-14T01:53:06.954Z,3.50
2017-12-14T01:55:33.315Z,3.50
2017-12-14T01:57:59.655Z,3.80
2017-12-14T02:00:25.983Z,3.90
2017-12-14T02:02:52.371Z,4.10
2017-12-14T02:05:18.710Z,4.30
2017-12-14T02:07:45.074Z,4.40
2017-12-14T02:10:11.419Z,4.30
2017-12-14T02:12:38.503Z,4.40
2017-12-14T02:15:04.860Z,4.40
2017-12-14T02:17:31.215Z,4.50
2017-12-14T02:19:57.583Z,4.60
2017-12-14T02:22:24.675Z,4.70
2017-12-14T02:24:51.015Z,4.60
2017-12-14T02:27:17.351Z,4.60
2017-12-14T02:29:43.683Z,4.60
2017-12-14T02:32:11.040Z,4.70
2017-12-14T02:34:37.371Z,4.70
2017-12-14T02:37:03.734Z,4.70
2017-12-14T02:39:30.071Z,4.80
2017-12-14T02:41:56.419Z,4.80
2017-12-14T02:44:22.773Z,4.70
2017-12-14T02:46:49.114Z,4.60
2017-12-14T02:49:15.451Z,4.70
2017-12-14T02:51:41.793Z,4.60
2017-12-14T02:54:08.133Z,4.70
2017-12-14T02:56:35.002Z,4.80
2017-12-14T02:59:02.380Z,4.90
2017-12-14T03:01:29.460Z,5.30
2017-12-14T03:03:55.947Z,5.30
2017-12-14T03:06:23.050Z,5.40
2017-12-14T03:08:49.417Z,5.40
2017-12-14T03:11:17.299Z,5.60
2017-12-14T03:13:43.679Z,5.60
2017-12-14T03:16:09.991Z,5.70
2017-12-14T03:18:37.359Z,5.70
2017-12-14T03:21:03.702Z,5.70
2017-12-14T03:23:30.024Z,5.70
2017-12-14T03:25:56.366Z,5.70
2017-12-14T03:28:22.695Z,5.80
2017-12-14T03:30:49.044Z,5.90
2017-12-14T03:33:15.376Z,5.80
2017-12-14T03:35:41.708Z,5.90
2017-12-14T03:38:08.059Z,6.00
2017-12-14T03:40:34.395Z,6.00
2017-12-14T03:43:00.752Z,6.00
2017-12-14T03:45:28.458Z,6.10
2017-12-14T03:47:54.815Z,6.10
2017-12-14T03:50:21.200Z,6.20
2017-12-14T03:52:47.606Z,6.20
2017-12-14T03:55:14.699Z,6.30
2017-12-14T03:57:41.039Z,6.20
2017-12-14T04:00:07.396Z,6.20
2017-12-14T04:02:33.731Z,6.20
2017-12-14T04:05:00.063Z,6.20
2017-12-14T04:07:26.416Z,6.30
2017-12-14T04:09:53.524Z,6.20
2017-12-14T04:12:20.168Z,6.20
2017-12-14T04:14:46.751Z,6.30
2017-12-14T04:17:13.863Z,6.30
2017-12-14T04:19:40.195Z,6.30
2017-12-14T04:22:06.631Z,6.40
2017-12-14T04:24:33.020Z,6.50
2017-12-14T04:26:59.387Z,6.60
2017-12-14T04:29:25.751Z,6.80
2017-12-14T04:31:53.823Z,7.10
2017-12-14T04:34:20.941Z,7.20
2017-12-14T04:36:47.351Z,7.10
2017-12-14T04:39:13.723Z,7.30
2017-12-14T04:41:40.842Z,7.50
2017-12-14T04:44:07.229Z,7.50
2017-12-14T04:46:33.607Z,7.30
2017-12-14T04:48:59.996Z,7.50
2017-12-14T04:51:26.384Z,7.40
2017-12-14T04:53:52.746Z,7.50
2017-12-14T04:56:19.120Z,7.50
2017-12-14T04:58:45.478Z,7.60
2017-12-14T05:01:11.903Z,7.50
2017-12-14T05:03:38.267Z,7.50
2017-12-14T05:06:05.387Z,7.60
2017-12-14T05:08:31.799Z,7.50
2017-12-14T05:10:58.134Z,7.50
2017-12-14T05:13:24.535Z,7.30
2017-12-14T05:15:50.914Z,7.20
2017-12-14T05:18:17.298Z,7.10
2017-12-14T05:20:47.393Z,7.10
2017-12-14T05:23:14.505Z,6.60
2017-12-14T05:25:40.920Z,6.60
2017-12-14T05:28:07.292Z,6.40
2017-12-14T05:30:33.663Z,6.30
2017-12-14T05:33:00.039Z,6.20
2017-12-14T05:35:26.846Z,6.00
2017-12-14T05:37:53.227Z,6.00
2017-12-14T05:40:19.615Z,5.90
2017-12-14T05:42:45.986Z,5.90
2017-12-14T05:45:12.375Z,5.90
2017-12-14T05:47:38.756Z,5.90
2017-12-14T05:50:05.151Z,5.90
2017-12-14T05:52:31.546Z,5.90
2017-12-14T05:54:58.804Z,6.00
2017-12-14T05:57:25.203Z,6.00
2017-12-14T05:59:51.611Z,6.00
2017-12-14T06:02:17.987Z,6.10
2017-12-14T06:04:45.132Z,6.30
2017-12-14T06:07:12.263Z,6.50
2017-12-14T06:09:38.671Z,6.40
2017-12-14T06:12:05.041Z,6.60
2017-12-14T06:14:32.180Z,6.70
2017-12-14T06:16:58.547Z,6.70
2017-12-14T06:19:24.982Z,6.70
2017-12-14T06:21:51.358Z,6.70
2017-12-14T06:24:17.711Z,6.70
2017-12-14T06:26:44.089Z,6.80
2017-12-14T06:29:10.475Z,6.80
2017-12-14T06:31:36.851Z,6.80
2017-12-14T06:34:03.215Z,6.80
2017-12-14T06:36:29.596Z,6.90
2017-12-14T06:38:56.098Z,6.00
2017-12-14T06:41:22.471Z,3.80
2017-12-14T06:43:48.842Z,2.20
2017-12-14T06:46:15.263Z,1.40
2017-12-14T06:48:41.631Z,1.10
2017-12-14T06:51:08.005Z,0.90
2017-12-14T06:53:34.375Z,0.80
2017-12-14T06:56:00.755Z,0.70
2017-12-14T06:58:27.858Z,0.70
2017-12-14T07:00:54.242Z,0.70
2017-12-14T07:03:27.371Z,0.80
2017-12-14T07:05:53.757Z,0.80
2017-12-14T07:08:20.867Z,0.90
2017-12-14T07:10:47.235Z,0.90
2017-12-14T07:13:13.598Z,0.90
2017-12-14T07:15:39.972Z,1.00
2017-12-14T07:18:06.337Z,1.00
2017-12-14T07:20:33.439Z,1.20
2017-12-14T07:22:59.806Z,1.10
2017-12-14T07:25:26.189Z,1.20
2017-12-14T07:27:52.570Z,1.20
2017-12-14T07:30:20.420Z,1.30
2017-12-14T07:32:46.786Z,1.20
2017-12-14T07:35:13.899Z,1.30
2017-12-14T07:37:40.270Z,1.30
2017-12-14T07:40:07.399Z,1.40
2017-12-14T07:42:46.151Z,1.40
2017-12-14T07:45:22.691Z,1.40
2017-12-14T07:47:58.245Z,1.30
2017-12-14T07:50:24.635Z,1.30
2017-12-14T07:52:51.018Z,1.30
2017-12-14T07:55:18.175Z,1.40
2017-12-14T07:57:45.287Z,1.30
2017-12-14T08:00:11.682Z,1.30
2017-12-14T08:02:38.046Z,1.30
2017-12-14T08:05:04.839Z,1.30
2017-12-14T08:07:31.955Z,1.40
2017-12-14T08:09:58.377Z,1.40
2017-12-14T08:12:24.756Z,1.40
2017-12-14T08:14:51.130Z,1.40
2017-12-14T08:17:17.491Z,1.40
2017-12-14T08:19:43.871Z,1.40
2017-12-14T08:22:10.251Z,1.40
2017-12-14T08:24:36.614Z,1.30
2017-12-14T08:27:03.760Z,1.40
2017-12-14T08:29:30.863Z,1.40
2017-12-14T08:31:57.253Z,1.30
2017-12-14T08:34:23.645Z,1.30
2017-12-14T08:36:50.036Z,1.30
2017-12-14T08:39:16.405Z,1.30
2017-12-14T08:41:42.813Z,1.30
2017-12-14T08:44:09.199Z,1.30
2017-12-14T08:46:36.338Z,1.40
2017-12-14T08:49:03.450Z,1.40
2017-12-14T08:51:29.839Z,1.30
2017-12-14T08:53:56.207Z,1.40
2017-12-14T08:56:22.591Z,1.50
2017-12-14T08:58:49.718Z,1.50
2017-12-14T09:01:16.124Z,1.50
2017-12-14T09:03:42.505Z,1.50
2017-12-14T09:06:09.664Z,1.60
2017-12-14T09:08:36.774Z,1.60
2017-12-14T09:11:03.148Z,1.50
2017-12-14T09:13:29.516Z,1.60
2017-12-14T09:15:55.943Z,1.50
2017-12-14T09:18:22.303Z,1.60
2017-12-14T09:20:48.708Z,1.70
2017-12-14T09:23:15.074Z,1.60
2017-12-14T09:25:41.463Z,1.60
2017-12-14T09:28:07.823Z,1.50
2017-12-14T09:30:34.195Z,1.50
2017-12-14T09:33:01.300Z,1.30
2017-12-14T09:35:27.808Z,1.30
2017-12-14T09:37:54.180Z,1.30
2017-12-14T09:40:20.546Z,1.40
2017-12-14T09:42:46.911Z,1.40
2017-12-14T09:45:13.239Z,1.30
2017-12-14T09:47:39.619Z,1.30
2017-12-14T09:50:06.736Z,1.40
2017-12-14T09:52:33.104Z,1.40
2017-12-14T09:55:00.223Z,1.50
2017-12-14T09:57:26.603Z,1.50
2017-12-14T09:59:53.711Z,1.80
2017-12-14T10:02:20.536Z,1.80
2017-12-14T10:04:46.919Z,1.90
2017-12-14T10:07:14.424Z,1.90
2017-12-14T10:09:40.799Z,1.90
2017-12-14T10:12:07.167Z,2.00
2017-12-14T10:14:33.563Z,2.10
2017-12-14T10:16:59.959Z,2.30
2017-12-14T10:19:26.324Z,2.40
2017-12-14T10:21:52.763Z,2.50
2017-12-14T10:24:19.140Z,2.50
2017-12-14T10:26:45.527Z,2.60
2017-12-14T10:29:11.919Z,2.50
2017-12-14T10:31:38.310Z,2.40
2017-12-14T10:34:05.443Z,2.50
2017-12-14T10:36:31.821Z,2.50
2017-12-14T10:38:58.232Z,2.70
2017-12-14T10:41:24.615Z,2.70
2017-12-14T10:43:50.995Z,2.70
2017-12-14T10:46:18.123Z,2.70
2017-12-14T10:48:45.312Z,2.70
2017-12-14T10:51:11.695Z,2.70
2017-12-14T10:53:38.095Z,2.50
2017-12-14T10:56:04.471Z,2.50
2017-12-14T10:58:31.619Z,2.50
2017-12-14T11:01:04.723Z,2.50
2017-12-14T11:03:31.859Z,2.50
2017-12-14T11:05:58.971Z,2.60
2017-12-14T11:08:25.375Z,2.60
2017-12-14T11:10:51.739Z,2.60
2017-12-14T11:13:18.112Z,2.60
2017-12-14T11:15:45.226Z,2.70
2017-12-14T11:18:12.635Z,2.60
2017-12-14T11:20:39.008Z,2.80
2017-12-14T11:23:05.415Z,2.90
2017-12-14T11:25:31.791Z,2.90
2017-12-14T11:27:59.183Z,2.90
2017-12-14T11:30:25.564Z,3.00
2017-12-14T11:32:51.952Z,3.00
2017-12-14T11:35:18.324Z,3.00
2017-12-14T11:37:44.732Z,3.00
2017-12-14T11:40:11.104Z,3.00
2017-12-14T11:42:38.988Z,2.90
2017-12-14T11:45:06.105Z,2.90
2017-12-14T11:47:32.493Z,2.90
2017-12-14T11:49:59.595Z,2.80
2017-12-14T11:52:26.008Z,2.80
2017-12-14T11:54:52.379Z,2.90
2017-12-14T11:57:18.758Z,3.00
2017-12-14T11:59:45.125Z,3.10
2017-12-14T12:02:11.508Z,3.10
2017-12-14T12:04:37.905Z,3.00
2017-12-14T12:07:04.287Z,2.90
2017-12-14T12:09:30.666Z,2.90
2017-12-14T12:11:57.995Z,3.00
2017-12-14T12:14:24.404Z,3.00
2017-12-14T12:16:50.767Z,3.00
2017-12-14T12:19:17.155Z,3.00
2017-12-14T12:21:43.528Z,3.00
2017-12-14T12:24:09.896Z,2.90
2017-12-14T12:26:37.031Z,2.90
2017-12-14T12:29:03.403Z,2.90
2017-12-14T12:31:29.796Z,2.80
2017-12-14T12:33:56.215Z,2.80
2017-12-14T12:36:22.587Z,2.80
2017-12-14T12:38:49.719Z,2.70
2017-12-14T12:41:17.858Z,2.70
2017-12-14T12:43:44.239Z,2.70
2017-12-14T12:46:11.364Z,2.70
2017-12-14T12:48:38.791Z,2.70
2017-12-14T12:51:05.147Z,2.70
2017-12-14T12:53:31.523Z,2.70
2017-12-14T12:55:57.895Z,2.80
2017-12-14T12:58:24.278Z,2.80
2017-12-14T13:00:50.655Z,2.90
2017-12-14T13:03:17.053Z,3.00
2017-12-14T13:05:43.420Z,3.00
2017-12-14T13:08:09.811Z,3.10
2017-12-14T13:10:36.180Z,3.10
2017-12-14T13:13:02.563Z,3.10
2017-12-14T13:15:29.672Z,3.00
2017-12-14T13:17:56.079Z,3.00
2017-12-14T13:20:22.453Z,3.00
2017-12-14T13:22:48.840Z,3.00
2017-12-14T13:25:15.211Z,3.00
2017-12-14T13:27:41.579Z,3.10
2017-12-14T13:30:07.955Z,3.00
2017-12-14T13:32:34.390Z,3.10
2017-12-14T13:35:00.762Z,3.20
2017-12-14T13:37:27.874Z,3.30
2017-12-14T13:39:54.264Z,3.20
2017-12-14T13:42:20.647Z,3.20
2017-12-14T13:44:47.772Z,3.40
2017-12-14T13:47:14.200Z,3.30
2017-12-14T13:49:40.547Z,3.30
2017-12-14T13:52:06.918Z,3.30
2017-12-14T13:54:33.307Z,3.30
2017-12-14T13:56:59.675Z,3.30
2017-12-14T13:59:26.066Z,3.30
2017-12-14T14:01:52.428Z,3.30
2017-12-14T14:04:18.812Z,3.20
2017-12-14T14:06:45.191Z,3.30
2017-12-14T14:09:11.595Z,3.30
2017-12-14T14:11:37.959Z,3.30
2017-12-14T14:14:04.352Z,3.30
2017-12-14T14:16:30.719Z,3.40
2017-12-14T14:18:57.103Z,3.40
2017-12-14T14:21:23.450Z,3.40
2017-12-14T14:23:49.870Z,3.30
2017-12-14T14:26:16.279Z,3.30
2017-12-14T14:28:43.395Z,3.30
2017-12-14T14:31:09.769Z,3.20
2017-12-14T14:33:36.908Z,3.30
2017-12-14T14:36:03.259Z,3.30
2017-12-14T14:38:31.392Z,3.30
2017-12-14T14:40:57.750Z,3.30
2017-12-14T14:43:25.218Z,3.40
2017-12-14T14:45:52.315Z,3.40
2017-12-14T14:48:18.668Z,3.30
2017-12-14T14:50:45.044Z,3.40
2017-12-14T14:53:11.396Z,3.40
2017-12-14T14:55:37.799Z,3.40
2017-12-14T14:58:04.135Z,3.40
2017-12-14T15:00:30.483Z,3.40
2017-12-14T15:02:56.837Z,3.50
2017-12-14T15:05:23.176Z,3.50
2017-12-14T15:07:49.531Z,3.50
2017-12-14T15:10:16.601Z,3.40
2017-12-14T15:12:43.678Z,3.50
2017-12-14T15:15:10.007Z,3.50
2017-12-14T15:17:36.360Z,3.40
2017-12-14T15:20:02.726Z,3.50
2017-12-14T15:22:29.816Z,3.50
2017-12-14T15:24:56.192Z,3.40
2017-12-14T15:27:22.551Z,3.50
2017-12-14T15:29:49.648Z,3.50
2017-12-14T15:32:15.983Z,3.50
2017-12-14T15:34:42.320Z,3.50
2017-12-14T15:37:10.283Z,3.50
2017-12-14T15:39:36.632Z,3.50
2017-12-14T15:42:03.043Z,3.60
2017-12-14T15:44:29.399Z,3.60
2017-12-14T15:46:56.474Z,3.60
2017-12-14T15:49:23.543Z,3.80
2017-12-14T15:51:49.895Z,3.70
2017-12-14T15:54:16.241Z,3.70
2017-12-14T15:56:42.566Z,3.70
2017-12-14T15:59:09.930Z,3.70
2017-12-14T16:01:36.255Z,3.70
2017-12-14T16:04:02.604Z,3.60
2017-12-14T16:06:29.975Z,3.60
2017-12-14T16:08:57.055Z,3.60
2017-12-14T16:11:23.393Z,3.50
2017-12-14T16:13:49.726Z,3.50
2017-12-14T16:16:16.092Z,3.50
2017-12-14T16:18:42.426Z,3.50
2017-12-14T16:21:08.754Z,3.50
2017-12-14T16:23:35.084Z,3.50
2017-12-14T16:26:01.423Z,3.50
2017-12-14T16:28:27.755Z,3.50
2017-12-14T16:30:54.122Z,3.50
2017-12-14T16:33:21.203Z,3.50
2017-12-14T16:35:47.563Z,3.40
2017-12-14T16:38:13.906Z,3.50
2017-12-14T16:40:40.238Z,3.40
2017-12-14T16:43:06.587Z,3.50
2017-12-14T16:45:33.680Z,3.40
2017-12-14T16:48:00.036Z,3.40
2017-12-14T16:50:26.426Z,3.40
2017-12-14T16:52:52.772Z,3.40
2017-12-14T16:55:19.112Z,3.40
2017-12-14T16:57:45.452Z,3.30
2017-12-14T17:00:11.999Z,3.30
2017-12-14T17:02:38.344Z,3.40
2017-12-14T17:05:04.692Z,3.40
2017-12-14T17:07:31.807Z,3.60
2017-12-14T17:09:58.171Z,3.50
2017-12-14T17:12:25.240Z,3.60
2017-12-14T17:14:51.591Z,3.50
2017-12-14T17:17:17.925Z,3.60
2017-12-14T17:19:44.320Z,3.60
2017-12-14T17:22:11.399Z,3.60
2017-12-14T17:24:37.758Z,3.60
2017-12-14T17:27:04.096Z,3.50
2017-12-14T17:29:30.463Z,3.50
2017-12-14T17:31:56.839Z,3.60
2017-12-14T17:34:23.207Z,3.60
2017-12-14T17:36:50.330Z,3.50
2017-12-14T17:39:16.643Z,3.50
2017-12-14T17:41:42.995Z,3.40
2017-12-14T17:44:10.068Z,3.30
2017-12-14T17:46:37.187Z,3.40
2017-12-14T17:49:03.523Z,3.40
2017-12-14T17:51:29.847Z,3.30
2017-12-14T17:53:56.762Z,3.40
2017-12-14T17:56:23.106Z,3.30
2017-12-14T17:58:50.468Z,3.30
2017-12-14T18:01:16.831Z,3.30
2017-12-14T18:03:45.322Z,3.20
2017-12-14T18:06:12.552Z,3.30
2017-12-14T18:08:38.888Z,3.30
2017-12-14T18:11:05.247Z,3.30
2017-12-14T18:13:32.335Z,3.50
2017-12-14T18:15:58.674Z,3.50
2017-12-14T18:18:25.054Z,3.50
2017-12-14T18:20:52.143Z,3.60
2017-12-14T18:23:18.507Z,3.50
2017-12-14T18:25:44.843Z,3.50
2017-12-14T18:28:11.228Z,3.60
2017-12-14T18:30:37.618Z,3.60
2017-12-14T18:33:04.740Z,3.70
2017-12-14T18:35:31.095Z,3.70
2017-12-14T18:37:58.203Z,3.80
2017-12-14T18:40:24.571Z,3.80
2017-12-14T18:42:51.988Z,3.80
2017-12-14T18:45:18.327Z,3.90
2017-12-14T18:47:44.723Z,3.80
2017-12-14T18:50:11.055Z,3.70
2017-12-14T18:52:37.473Z,3.90
2017-12-14T18:55:04.577Z,3.80
2017-12-14T18:57:30.959Z,3.70
2017-12-14T18:59:58.087Z,3.70
2017-12-14T19:02:24.486Z,3.70
2017-12-14T19:04:50.871Z,3.70
2017-12-14T19:07:17.255Z,3.70
2017-12-14T19:09:43.615Z,3.70
2017-12-14T19:12:10.763Z,3.70
2017-12-14T19:14:37.132Z,3.70
2017-12-14T19:17:03.535Z,3.70
2017-12-14T19:19:30.647Z,3.70
2017-12-14T19:21:57.188Z,3.80
2017-12-14T19:24:23.567Z,3.80
2017-12-14T19:26:50.680Z,3.70
2017-12-14T19:29:17.047Z,3.70
2017-12-14T19:31:44.148Z,3.60
2017-12-14T19:34:10.503Z,3.60
2017-12-14T19:36:36.912Z,3.50
2017-12-14T19:39:03.327Z,3.50
2017-12-14T19:41:29.706Z,3.40
2017-12-14T19:43:56.811Z,3.30
2017-12-14T19:46:23.187Z,3.30
2017-12-14T19:48:50.325Z,3.40
2017-12-14T19:51:16.687Z,3.40
2017-12-14T19:53:43.787Z,3.30
2017-12-14T19:56:10.155Z,3.30
2017-12-14T19:58:37.278Z,3.30
2017-12-14T20:01:03.639Z,3.30
2017-12-14T20:03:30.736Z,3.20
2017-12-14T20:05:57.082Z,3.20
2017-12-14T20:08:23.868Z,3.30
2017-12-14T20:10:52.060Z,3.30
2017-12-14T20:13:19.671Z,3.30
2017-12-14T20:15:46.483Z,3.20
2017-12-14T20:18:13.600Z,3.20
2017-12-14T20:20:39.947Z,3.20
2017-12-14T20:23:06.323Z,3.20
2017-12-14T20:25:32.691Z,3.10
2017-12-14T20:27:59.056Z,3.20
2017-12-14T20:30:26.525Z,3.10
2017-12-14T20:32:52.886Z,3.00
2017-12-14T20:35:20.035Z,3.00
2017-12-14T20:37:46.448Z,3.00
2017-12-14T20:40:12.817Z,3.00
2017-12-14T20:42:39.219Z,3.00
2017-12-14T20:45:06.350Z,3.00
2017-12-14T20:47:32.869Z,2.90
2017-12-14T20:49:59.242Z,2.90
2017-12-14T20:52:25.751Z,2.90
2017-12-14T20:54:52.151Z,2.90
2017-12-14T20:57:18.535Z,2.90
2017-12-14T20:59:45.079Z,2.90
2017-12-14T21:02:12.505Z,2.90
2017-12-14T21:04:40.136Z,2.90
2017-12-14T21:07:06.522Z,2.80
2017-12-14T21:09:33.223Z,2.70
2017-12-14T21:12:00.310Z,2.80
2017-12-14T21:14:27.423Z,2.70
2017-12-14T21:16:53.787Z,2.70
2017-12-14T21:19:20.130Z,2.60
2017-12-14T21:21:46.513Z,2.50
2017-12-14T21:24:12.852Z,2.50
2017-12-14T21:26:39.239Z,2.50
2017-12-14T21:29:06.327Z,2.40
2017-12-14T21:31:32.687Z,2.40
2017-12-14T21:33:59.035Z,2.20
2017-12-14T21:36:25.386Z,2.20
2017-12-14T21:38:53.506Z,2.10
2017-12-14T21:41:19.868Z,2.00
2017-12-14T21:43:46.223Z,2.10
2017-12-14T21:46:13.292Z,2.10
2017-12-14T21:48:39.639Z,2.10
2017-12-14T21:51:06.018Z,2.10
2017-12-14T21:53:33.115Z,2.00
2017-12-14T21:55:59.501Z,2.00
2017-12-14T21:58:26.668Z,2.10
2017-12-14T22:00:53.761Z,2.10
2017-12-14T22:03:20.122Z,2.10
2017-12-14T22:05:46.472Z,2.00
2017-12-14T22:08:13.563Z,2.10
2017-12-14T22:10:39.961Z,2.00
2017-12-14T22:13:07.250Z,2.00
2017-12-14T22:15:34.584Z,2.00
2017-12-14T22:18:01.005Z,1.90
2017-12-14T22:20:27.412Z,1.90
2017-12-14T22:22:55.161Z,1.80
2017-12-14T22:25:22.360Z,1.80
2017-12-14T22:27:49.841Z,1.70
2017-12-14T22:30:16.219Z,1.60
2017-12-14T22:32:43.347Z,1.60
2017-12-14T22:35:09.737Z,1.60
2017-12-14T22:37:36.130Z,1.60
2017-12-14T22:40:02.502Z,1.60
2017-12-14T22:42:28.879Z,1.70
2017-12-14T22:44:55.247Z,1.70
2017-12-14T22:47:22.343Z,1.60
2017-12-14T22:49:48.700Z,1.50
2017-12-14T22:52:15.814Z,1.60
2017-12-14T22:54:42.163Z,1.50
2017-12-14T22:57:08.514Z,1.60
2017-12-14T22:59:34.894Z,1.60
2017-12-14T23:02:01.341Z,1.50
2017-12-14T23:04:28.539Z,1.40
2017-12-14T23:06:54.874Z,1.40
2017-12-14T23:09:21.256Z,1.40
2017-12-14T23:11:47.623Z,1.50
2017-12-14T23:14:14.008Z,1.50
2017-12-14T23:16:40.380Z,1.50
2017-12-14T23:19:06.771Z,1.50
2017-12-14T23:21:33.115Z,1.50
2017-12-14T23:23:59.484Z,1.60
2017-12-14T23:26:25.883Z,1.50
2017-12-14T23:28:52.264Z,1.50
2017-12-14T23:31:19.384Z,1.60
2017-12-14T23:33:45.800Z,1.60
2017-12-14T23:36:12.147Z,1.70
2017-12-14T23:38:38.547Z,1.70
2017-12-14T23:41:04.911Z,1.70
2017-12-14T23:43:31.267Z,1.70
2017-12-14T23:45:57.726Z,1.60
2017-12-14T23:48:24.891Z,1.70
2017-12-14T23:50:51.247Z,1.70
2017-12-14T23:53:17.639Z,1.70
2017-12-14T23:55:44.759Z,1.70
2017-12-14T23:58:11.156Z,1.70
